PAL1805 RPLL-RPMD
Flight info
| Callsign | PAL1805 |
|---|---|
| Flight time | N/A |
| Altitude | 37000 |
| Route | IPATA2R/06 IPATA B462 MASBA W9A BN W9 RIMAR RIMAR2P |
| Aircraft | A333/H-L/LB2D1 |
Departure
| Time | N/A |
|---|---|
| Airport | Ninoy Aquino International Airport (RPLL) |
Arrival
| Time | 2026-05-06 14:21 |
|---|---|
| Airport | Francisco Bangoy International Airport (RPMD) |
| Time | Latitude | Longitude | Altitude | Speed | Heading |
|---|---|---|---|---|---|
| 2026-05-06 13:36 | 11.40457 | 124.16103 | 36880 ft | 463 kts | 151° |
| 2026-05-06 13:36 | 11.34768 | 124.19220 | 36877 ft | 464 kts | 151° |
| 2026-05-06 13:37 | 11.29071 | 124.22341 | 36872 ft | 464 kts | 151° |
| 2026-05-06 13:37 | 11.23381 | 124.25458 | 36869 ft | 464 kts | 151° |
| 2026-05-06 13:38 | 11.17675 | 124.28581 | 36873 ft | 464 kts | 151° |
| 2026-05-06 13:38 | 11.11970 | 124.31705 | 36874 ft | 464 kts | 151° |
| 2026-05-06 13:39 | 11.06258 | 124.34827 | 36878 ft | 463 kts | 151° |
| 2026-05-06 13:39 | 11.00577 | 124.37885 | 36882 ft | 463 kts | 151° |
| 2026-05-06 13:40 | 10.94862 | 124.40958 | 36883 ft | 463 kts | 152° |
| 2026-05-06 13:40 | 10.89127 | 124.44045 | 36883 ft | 463 kts | 151° |
| 2026-05-06 13:41 | 10.83439 | 124.47109 | 36877 ft | 463 kts | 151° |
| 2026-05-06 13:41 | 10.77696 | 124.50200 | 36873 ft | 462 kts | 151° |
| 2026-05-06 13:42 | 10.72954 | 124.52764 | 36872 ft | 461 kts | 151° |
| 2026-05-06 13:42 | 10.66333 | 124.56358 | 36869 ft | 461 kts | 151° |
| 2026-05-06 13:43 | 10.60667 | 124.59436 | 36869 ft | 462 kts | 151° |
| 2026-05-06 13:43 | 10.54994 | 124.62513 | 36872 ft | 461 kts | 151° |
| 2026-05-06 13:44 | 10.49316 | 124.65591 | 36874 ft | 461 kts | 151° |
| 2026-05-06 13:44 | 10.43645 | 124.68666 | 36875 ft | 461 kts | 151° |
| 2026-05-06 13:45 | 10.37964 | 124.71745 | 36874 ft | 461 kts | 151° |
| 2026-05-06 13:45 | 10.29478 | 124.76344 | 36874 ft | 460 kts | 151° |
| 2026-05-06 13:46 | 10.23812 | 124.79412 | 36875 ft | 460 kts | 151° |
| 2026-05-06 13:46 | 10.18156 | 124.82471 | 36874 ft | 459 kts | 151° |
| 2026-05-06 13:47 | 10.12479 | 124.85543 | 36874 ft | 459 kts | 151° |
| 2026-05-06 13:47 | 10.06826 | 124.88601 | 36868 ft | 460 kts | 151° |
| 2026-05-06 13:48 | 10.01193 | 124.91647 | 36858 ft | 460 kts | 151° |
| 2026-05-06 13:48 | 9.95499 | 124.94724 | 36857 ft | 459 kts | 151° |
| 2026-05-06 13:49 | 9.89853 | 124.97776 | 36855 ft | 460 kts | 151° |
| 2026-05-06 13:49 | 9.84211 | 125.00824 | 36854 ft | 460 kts | 151° |
| 2026-05-06 13:50 | 9.78547 | 125.03883 | 36856 ft | 460 kts | 151° |
| 2026-05-06 13:50 | 9.72870 | 125.06941 | 36856 ft | 460 kts | 151° |
| 2026-05-06 13:51 | 9.67189 | 125.10001 | 36807 ft | 461 kts | 151° |
| 2026-05-06 13:51 | 9.64355 | 125.11527 | 36167 ft | 465 kts | 151° |
| 2026-05-06 13:51 | 9.61492 | 125.13069 | 35402 ft | 463 kts | 151° |
| 2026-05-06 13:52 | 9.58648 | 125.14595 | 34696 ft | 464 kts | 151° |
| 2026-05-06 13:52 | 9.55720 | 125.16155 | 33972 ft | 465 kts | 151° |
| 2026-05-06 13:52 | 9.52877 | 125.17667 | 33316 ft | 464 kts | 151° |
| 2026-05-06 13:52 | 9.50032 | 125.19180 | 32704 ft | 463 kts | 151° |
| 2026-05-06 13:53 | 9.47188 | 125.20694 | 32286 ft | 458 kts | 151° |
| 2026-05-06 13:53 | 9.44366 | 125.22196 | 31903 ft | 454 kts | 150° |
| 2026-05-06 13:53 | 9.41596 | 125.23674 | 31508 ft | 450 kts | 151° |
| 2026-05-06 13:53 | 9.38836 | 125.25145 | 31104 ft | 446 kts | 150° |
| 2026-05-06 13:54 | 9.36093 | 125.26606 | 30689 ft | 443 kts | 150° |
| 2026-05-06 13:54 | 9.33356 | 125.28064 | 30281 ft | 439 kts | 150° |
| 2026-05-06 13:54 | 9.30641 | 125.29511 | 29889 ft | 436 kts | 150° |
| 2026-05-06 13:54 | 9.27965 | 125.30936 | 29493 ft | 432 kts | 150° |
| 2026-05-06 13:55 | 9.25299 | 125.32356 | 29118 ft | 429 kts | 150° |
| 2026-05-06 13:55 | 9.22659 | 125.33762 | 28739 ft | 425 kts | 150° |
| 2026-05-06 13:55 | 9.20065 | 125.35143 | 28373 ft | 422 kts | 150° |
| 2026-05-06 13:55 | 9.17457 | 125.36532 | 28008 ft | 418 kts | 150° |
| 2026-05-06 13:56 | 9.14899 | 125.37894 | 27642 ft | 416 kts | 150° |
| 2026-05-06 13:56 | 9.12321 | 125.39265 | 27266 ft | 413 kts | 150° |
| 2026-05-06 13:56 | 9.09800 | 125.40606 | 26895 ft | 410 kts | 150° |
| 2026-05-06 13:56 | 9.07267 | 125.41954 | 26510 ft | 408 kts | 150° |
| 2026-05-06 13:57 | 9.04765 | 125.43285 | 26131 ft | 406 kts | 150° |
| 2026-05-06 13:57 | 9.02241 | 125.44628 | 25739 ft | 405 kts | 150° |
| 2026-05-06 13:57 | 8.99767 | 125.45943 | 25362 ft | 403 kts | 150° |
| 2026-05-06 13:57 | 8.97236 | 125.47228 | 24969 ft | 402 kts | 155° |
| 2026-05-06 13:58 | 8.94612 | 125.48167 | 24601 ft | 401 kts | 163° |
| 2026-05-06 13:58 | 8.91853 | 125.48734 | 24232 ft | 400 kts | 171° |
| 2026-05-06 13:58 | 8.89106 | 125.49046 | 23866 ft | 399 kts | 172° |
| 2026-05-06 13:58 | 8.86351 | 125.49313 | 23498 ft | 397 kts | 173° |
| 2026-05-06 13:59 | 8.83573 | 125.49580 | 23133 ft | 395 kts | 173° |
| 2026-05-06 13:59 | 8.80818 | 125.49850 | 22761 ft | 394 kts | 173° |
| 2026-05-06 13:59 | 8.78105 | 125.50120 | 22405 ft | 392 kts | 173° |
| 2026-05-06 13:59 | 8.75387 | 125.50392 | 22054 ft | 390 kts | 173° |
| 2026-05-06 14:00 | 8.72664 | 125.50665 | 21692 ft | 388 kts | 172° |
| 2026-05-06 14:00 | 8.70874 | 125.50847 | 21453 ft | 387 kts | 172° |
| 2026-05-06 14:00 | 8.67295 | 125.51210 | 20985 ft | 385 kts | 172° |
| 2026-05-06 14:00 | 8.64654 | 125.51479 | 20638 ft | 384 kts | 172° |
| 2026-05-06 14:01 | 8.61994 | 125.51748 | 20312 ft | 381 kts | 172° |
| 2026-05-06 14:01 | 8.59340 | 125.52019 | 19963 ft | 380 kts | 172° |
| 2026-05-06 14:01 | 8.56711 | 125.52286 | 19616 ft | 378 kts | 172° |
| 2026-05-06 14:01 | 8.54092 | 125.52551 | 19267 ft | 376 kts | 172° |
| 2026-05-06 14:02 | 8.51486 | 125.52811 | 18919 ft | 375 kts | 172° |
| 2026-05-06 14:02 | 8.48878 | 125.53047 | 18572 ft | 374 kts | 172° |
| 2026-05-06 14:02 | 8.46281 | 125.53277 | 18228 ft | 372 kts | 172° |
| 2026-05-06 14:02 | 8.43718 | 125.53503 | 17887 ft | 371 kts | 172° |
| 2026-05-06 14:03 | 8.41113 | 125.53735 | 17549 ft | 369 kts | 172° |
| 2026-05-06 14:03 | 8.38571 | 125.53961 | 17221 ft | 367 kts | 172° |
| 2026-05-06 14:03 | 8.36009 | 125.54192 | 16880 ft | 366 kts | 172° |
| 2026-05-06 14:03 | 8.33464 | 125.54420 | 16537 ft | 364 kts | 172° |
| 2026-05-06 14:04 | 8.30963 | 125.54644 | 16193 ft | 363 kts | 172° |
| 2026-05-06 14:04 | 8.28445 | 125.54871 | 15861 ft | 362 kts | 172° |
| 2026-05-06 14:04 | 8.25898 | 125.55099 | 15515 ft | 361 kts | 172° |
| 2026-05-06 14:04 | 8.23417 | 125.55321 | 15168 ft | 359 kts | 172° |
| 2026-05-06 14:05 | 8.20901 | 125.55548 | 14822 ft | 358 kts | 172° |
| 2026-05-06 14:05 | 8.18414 | 125.55771 | 14468 ft | 357 kts | 172° |
| 2026-05-06 14:05 | 8.15930 | 125.55994 | 14111 ft | 356 kts | 172° |
| 2026-05-06 14:05 | 8.13464 | 125.56216 | 13752 ft | 356 kts | 172° |
| 2026-05-06 14:06 | 8.10985 | 125.56438 | 13392 ft | 355 kts | 172° |
| 2026-05-06 14:06 | 8.09348 | 125.56584 | 13147 ft | 355 kts | 172° |
| 2026-05-06 14:07 | 7.98933 | 125.57519 | 11686 ft | 349 kts | 172° |
| 2026-05-06 14:07 | 7.96520 | 125.57819 | 11342 ft | 346 kts | 168° |
| 2026-05-06 14:07 | 7.94156 | 125.58290 | 11016 ft | 344 kts | 165° |
| 2026-05-06 14:08 | 7.91803 | 125.58813 | 10675 ft | 342 kts | 165° |
| 2026-05-06 14:08 | 7.89474 | 125.59339 | 10334 ft | 341 kts | 165° |
| 2026-05-06 14:08 | 7.87188 | 125.59854 | 10174 ft | 332 kts | 165° |
| 2026-05-06 14:08 | 7.84966 | 125.60353 | 10147 ft | 320 kts | 165° |
| 2026-05-06 14:09 | 7.82799 | 125.60838 | 10094 ft | 309 kts | 165° |
| 2026-05-06 14:09 | 7.80754 | 125.61295 | 10005 ft | 300 kts | 165° |
| 2026-05-06 14:09 | 7.78694 | 125.61758 | 9708 ft | 300 kts | 165° |
| 2026-05-06 14:09 | 7.76639 | 125.62221 | 9408 ft | 300 kts | 165° |
| 2026-05-06 14:10 | 7.74599 | 125.62678 | 9121 ft | 299 kts | 165° |
| 2026-05-06 14:10 | 7.72567 | 125.63133 | 8835 ft | 298 kts | 165° |
| 2026-05-06 14:10 | 7.70541 | 125.63586 | 8556 ft | 297 kts | 165° |
| 2026-05-06 14:10 | 7.68502 | 125.64041 | 8278 ft | 296 kts | 165° |
| 2026-05-06 14:11 | 7.66474 | 125.64495 | 7987 ft | 296 kts | 165° |
| 2026-05-06 14:11 | 7.64450 | 125.64947 | 7698 ft | 295 kts | 165° |
| 2026-05-06 14:11 | 7.62460 | 125.65392 | 7433 ft | 294 kts | 166° |
| 2026-05-06 14:11 | 7.60430 | 125.65846 | 7143 ft | 294 kts | 166° |
| 2026-05-06 14:12 | 7.58424 | 125.66293 | 6867 ft | 293 kts | 166° |
| 2026-05-06 14:12 | 7.56449 | 125.66735 | 6600 ft | 292 kts | 166° |
| 2026-05-06 14:12 | 7.54444 | 125.67184 | 6325 ft | 291 kts | 166° |
| 2026-05-06 14:12 | 7.52459 | 125.67628 | 6061 ft | 290 kts | 166° |
| 2026-05-06 14:13 | 7.50482 | 125.68070 | 5789 ft | 290 kts | 166° |
| 2026-05-06 14:13 | 7.48502 | 125.68512 | 5526 ft | 289 kts | 166° |
| 2026-05-06 14:13 | 7.46523 | 125.68954 | 5240 ft | 289 kts | 166° |
| 2026-05-06 14:13 | 7.44540 | 125.69398 | 4944 ft | 290 kts | 166° |
| 2026-05-06 14:14 | 7.42572 | 125.69838 | 4663 ft | 290 kts | 166° |
| 2026-05-06 14:14 | 7.40591 | 125.70281 | 4386 ft | 289 kts | 167° |
| 2026-05-06 14:14 | 7.38626 | 125.70721 | 4097 ft | 286 kts | 167° |
| 2026-05-06 14:14 | 7.36704 | 125.71150 | 3995 ft | 273 kts | 167° |
| 2026-05-06 14:15 | 7.34892 | 125.71555 | 3991 ft | 256 kts | 167° |
| 2026-05-06 14:15 | 7.33216 | 125.72025 | 3995 ft | 244 kts | 154° |
| 2026-05-06 14:15 | 7.31806 | 125.72919 | 3879 ft | 237 kts | 140° |
| 2026-05-06 14:15 | 7.30550 | 125.73999 | 3654 ft | 232 kts | 137° |
| 2026-05-06 14:16 | 7.29358 | 125.75067 | 3522 ft | 224 kts | 137° |
| 2026-05-06 14:16 | 7.28210 | 125.76086 | 3378 ft | 218 kts | 137° |
| 2026-05-06 14:16 | 7.27087 | 125.77072 | 3239 ft | 211 kts | 137° |
| 2026-05-06 14:16 | 7.25921 | 125.77947 | 3084 ft | 204 kts | 158° |
| 2026-05-06 14:17 | 7.24571 | 125.78057 | 2951 ft | 194 kts | 198° |
| 2026-05-06 14:17 | 7.23456 | 125.77377 | 2839 ft | 182 kts | 226° |
| 2026-05-06 14:17 | 7.22610 | 125.76420 | 2736 ft | 181 kts | 234° |
| 2026-05-06 14:17 | 7.21836 | 125.75430 | 2606 ft | 180 kts | 234° |
| 2026-05-06 14:18 | 7.21041 | 125.74449 | 2371 ft | 178 kts | 232° |
| 2026-05-06 14:18 | 7.20251 | 125.73517 | 2112 ft | 173 kts | 232° |
| 2026-05-06 14:18 | 7.19478 | 125.72623 | 1890 ft | 166 kts | 232° |
| 2026-05-06 14:18 | 7.18726 | 125.71755 | 1680 ft | 159 kts | 231° |
| 2026-05-06 14:19 | 7.18020 | 125.70937 | 1472 ft | 152 kts | 231° |
| 2026-05-06 14:19 | 7.17330 | 125.70136 | 1283 ft | 149 kts | 231° |
| 2026-05-06 14:19 | 7.16646 | 125.69340 | 1081 ft | 150 kts | 231° |
| 2026-05-06 14:19 | 7.15968 | 125.68552 | 882 ft | 149 kts | 230° |
| 2026-05-06 14:20 | 7.15317 | 125.67796 | 690 ft | 149 kts | 230° |
| 2026-05-06 14:20 | 7.14781 | 125.67174 | 533 ft | 149 kts | 230° |
| 2026-05-06 14:20 | 7.14100 | 125.66382 | 330 ft | 148 kts | 230° |
| 2026-05-06 14:20 | 7.13433 | 125.65601 | 152 ft | 147 kts | 229° |
| 2026-05-06 14:21 | 7.12806 | 125.64874 | 122 ft | 112 kts | 230° |
| 2026-05-06 14:21 | 7.12580 | 125.64613 | 122 ft | 4 kts | 229° |
| 2026-05-06 14:21 | 7.12567 | 125.64578 | 122 ft | 5 kts | 277° |
| 2026-05-06 14:21 | 7.12594 | 125.64537 | 122 ft | 8 kts | 317° |
| 2026-05-06 14:22 | 7.12640 | 125.64497 | 122 ft | 9 kts | 320° |
| 2026-05-06 14:22 | 7.12691 | 125.64455 | 122 ft | 8 kts | 324° |
| 2026-05-06 14:22 | 7.12743 | 125.64459 | 122 ft | 8 kts | 41° |